sensor_id;sensor_type;location;lat;lon;timestamp;pressure;altitude;pressure_sealevel;temperature;humidity
11395;BME280;5753;54.402;10.220;2022-11-14T00:00:25;102354.97;;;20.94;42.44
11395;BME280;5753;54.402;10.220;2022-11-14T00:02:52;102356.72;;;20.89;42.22
11395;BME280;5753;54.402;10.220;2022-11-14T00:05:18;102347.16;;;20.21;43.15
11395;BME280;5753;54.402;10.220;2022-11-14T00:07:45;102343.63;;;20.84;42.04
11395;BME280;5753;54.402;10.220;2022-11-14T00:10:13;102342.75;;;20.71;41.96
11395;BME280;5753;54.402;10.220;2022-11-14T00:12:39;102343.63;;;20.90;41.68
11395;BME280;5753;54.402;10.220;2022-11-14T00:15:06;102338.25;;;21.16;41.29
11395;BME280;5753;54.402;10.220;2022-11-14T00:17:32;102332.31;;;20.58;41.87
11395;BME280;5753;54.402;10.220;2022-11-14T00:19:58;102331.38;;;20.80;41.27
11395;BME280;5753;54.402;10.220;2022-11-14T00:22:24;102334.09;;;20.51;42.09
11395;BME280;5753;54.402;10.220;2022-11-14T00:24:50;102329.50;;;21.20;41.03
11395;BME280;5753;54.402;10.220;2022-11-14T00:27:16;102320.81;;;21.08;41.26
11395;BME280;5753;54.402;10.220;2022-11-14T00:29:42;102318.38;;;20.42;42.93
11395;BME280;5753;54.402;10.220;2022-11-14T00:32:08;102319.06;;;21.13;41.73
11395;BME280;5753;54.402;10.220;2022-11-14T00:34:34;102323.59;;;20.57;42.69
11395;BME280;5753;54.402;10.220;2022-11-14T00:37:00;102318.31;;;20.82;42.48
11395;BME280;5753;54.402;10.220;2022-11-14T00:39:27;102313.13;;;20.51;42.95
11395;BME280;5753;54.402;10.220;2022-11-14T00:41:53;102306.78;;;21.24;41.62
11395;BME280;5753;54.402;10.220;2022-11-14T00:44:19;102300.81;;;20.90;41.94
11395;BME280;5753;54.402;10.220;2022-11-14T00:46:45;102300.00;;;20.63;42.45
11395;BME280;5753;54.402;10.220;2022-11-14T00:49:11;102299.81;;;21.17;41.41
11395;BME280;5753;54.402;10.220;2022-11-14T00:51:37;102299.78;;;21.30;40.90
11395;BME280;5753;54.402;10.220;2022-11-14T00:54:03;102300.03;;;20.42;42.51
11395;BME280;5753;54.402;10.220;2022-11-14T00:56:29;102281.63;;;20.66;41.63
11395;BME280;5753;54.402;10.220;2022-11-14T00:58:56;102286.06;;;20.03;42.92
11395;BME280;5753;54.402;10.220;2022-11-14T01:01:22;102290.44;;;20.46;41.90
11395;BME280;5753;54.402;10.220;2022-11-14T01:03:49;102285.16;;;20.29;42.00
11395;BME280;5753;54.402;10.220;2022-11-14T01:06:15;102272.06;;;20.56;41.51
11395;BME280;5753;54.402;10.220;2022-11-14T01:08:42;102272.97;;;19.74;42.88
11395;BME280;5753;54.402;10.220;2022-11-14T01:11:15;102272.13;;;19.95;42.72
11395;BME280;5753;54.402;10.220;2022-11-14T01:13:42;102263.38;;;19.78;42.39
11395;BME280;5753;54.402;10.220;2022-11-14T01:16:10;102270.31;;;20.29;41.48
11395;BME280;5753;54.402;10.220;2022-11-14T01:18:36;102269.47;;;19.86;42.32
11395;BME280;5753;54.402;10.220;2022-11-14T01:21:09;102265.09;;;20.28;41.56
11395;BME280;5753;54.402;10.220;2022-11-14T01:23:35;102261.63;;;19.68;42.70
11395;BME280;5753;54.402;10.220;2022-11-14T01:26:07;102259.88;;;19.84;42.66
11395;BME280;5753;54.402;10.220;2022-11-14T01:28:34;102254.66;;;20.08;42.13
11395;BME280;5753;54.402;10.220;2022-11-14T01:31:15;102251.13;;;20.55;41.11
11395;BME280;5753;54.402;10.220;2022-11-14T01:33:42;102251.16;;;19.56;43.24
11395;BME280;5753;54.402;10.220;2022-11-14T01:36:09;102243.31;;;19.86;42.54
11395;BME280;5753;54.402;10.220;2022-11-14T01:38:36;102237.06;;;19.03;44.00
11395;BME280;5753;54.402;10.220;2022-11-14T01:41:03;102238.94;;;20.17;41.92
11395;BME280;5753;54.402;10.220;2022-11-14T01:43:34;102242.41;;;20.18;41.72
11395;BME280;5753;54.402;10.220;2022-11-14T01:46:09;102230.22;;;19.66;42.69
11395;BME280;5753;54.402;10.220;2022-11-14T01:48:51;102227.63;;;19.59;42.84
11395;BME280;5753;54.402;10.220;2022-11-14T01:53:50;102222.25;;;19.13;43.54
11395;BME280;5753;54.402;10.220;2022-11-14T01:56:20;102222.38;;;19.56;42.66
11395;BME280;5753;54.402;10.220;2022-11-14T01:58:53;102216.28;;;19.69;42.37
11395;BME280;5753;54.402;10.220;2022-11-14T02:01:21;102210.06;;;19.09;43.61
11395;BME280;5753;54.402;10.220;2022-11-14T02:03:49;102195.22;;;18.96;43.70
11395;BME280;5753;54.402;10.220;2022-11-14T02:06:20;102205.69;;;19.09;43.63
11395;BME280;5753;54.402;10.220;2022-11-14T02:08:48;102197.94;;;19.41;42.78
11395;BME280;5753;54.402;10.220;2022-11-14T02:11:15;102190.09;;;19.50;42.59
11395;BME280;5753;54.402;10.220;2022-11-14T02:13:41;102187.47;;;19.43;42.99
11395;BME280;5753;54.402;10.220;2022-11-14T02:16:08;102182.72;;;18.32;45.22
11395;BME280;5753;54.402;10.220;2022-11-14T02:18:34;102179.56;;;19.17;43.13
11395;BME280;5753;54.402;10.220;2022-11-14T02:21:00;102172.63;;;19.22;43.07
11395;BME280;5753;54.402;10.220;2022-11-14T02:23:31;102163.91;;;19.32;43.06
11395;BME280;5753;54.402;10.220;2022-11-14T02:25:58;102173.47;;;19.21;43.35
11395;BME280;5753;54.402;10.220;2022-11-14T02:28:25;102154.34;;;19.43;43.11
11395;BME280;5753;54.402;10.220;2022-11-14T02:30:51;102160.31;;;18.86;43.98
11395;BME280;5753;54.402;10.220;2022-11-14T02:33:17;102152.56;;;19.26;43.47
11395;BME280;5753;54.402;10.220;2022-11-14T02:35:43;102149.09;;;19.31;43.33
11395;BME280;5753;54.402;10.220;2022-11-14T02:38:10;102143.84;;;19.10;43.61
11395;BME280;5753;54.402;10.220;2022-11-14T02:40:36;102147.34;;;19.24;43.74
11395;BME280;5753;54.402;10.220;2022-11-14T02:43:02;102143.84;;;19.31;43.35
11395;BME280;5753;54.402;10.220;2022-11-14T02:45:28;102143.84;;;18.98;44.21
11395;BME280;5753;54.402;10.220;2022-11-14T02:47:54;102130.78;;;19.11;43.63
11395;BME280;5753;54.402;10.220;2022-11-14T02:50:20;102141.28;;;19.66;42.56
11395;BME280;5753;54.402;10.220;2022-11-14T02:52:46;102131.66;;;19.15;43.39
11395;BME280;5753;54.402;10.220;2022-11-14T02:55:12;102131.69;;;19.91;42.17
11395;BME280;5753;54.402;10.220;2022-11-14T02:57:38;102125.56;;;19.74;42.63
11395;BME280;5753;54.402;10.220;2022-11-14T03:00:05;102133.44;;;19.74;42.51
11395;BME280;5753;54.402;10.220;2022-11-14T03:02:31;102128.19;;;19.91;42.23
11395;BME280;5753;54.402;10.220;2022-11-14T03:04:57;102121.19;;;19.29;43.45
11395;BME280;5753;54.402;10.220;2022-11-14T03:07:23;102120.34;;;19.88;41.94
11395;BME280;5753;54.402;10.220;2022-11-14T03:09:49;102115.97;;;19.80;42.31
11395;BME280;5753;54.402;10.220;2022-11-14T03:12:17;102110.75;;;19.76;42.33
11395;BME280;5753;54.402;10.220;2022-11-14T03:14:44;102103.78;;;19.72;42.13
11395;BME280;5753;54.402;10.220;2022-11-14T03:17:11;102104.66;;;19.66;42.18
11395;BME280;5753;54.402;10.220;2022-11-14T03:19:37;102111.50;;;20.21;41.25
11395;BME280;5753;54.402;10.220;2022-11-14T03:22:03;102108.84;;;20.39;41.14
11395;BME280;5753;54.402;10.220;2022-11-14T03:24:29;102100.22;;;20.06;41.42
11395;BME280;5753;54.402;10.220;2022-11-14T03:26:55;102101.13;;;19.99;41.63
11395;BME280;5753;54.402;10.220;2022-11-14T03:29:21;102103.69;;;20.15;41.51
11395;BME280;5753;54.402;10.220;2022-11-14T03:31:48;102096.81;;;19.74;42.20
11395;BME280;5753;54.402;10.220;2022-11-14T03:34:14;102094.06;;;20.20;41.18
11395;BME280;5753;54.402;10.220;2022-11-14T03:36:40;102095.94;;;19.70;42.18
11395;BME280;5753;54.402;10.220;2022-11-14T03:39:06;102091.56;;;19.71;42.42
11395;BME280;5753;54.402;10.220;2022-11-14T03:41:32;102088.88;;;20.03;41.50
11395;BME280;5753;54.402;10.220;2022-11-14T03:43:58;102086.16;;;20.26;40.85
11395;BME280;5753;54.402;10.220;2022-11-14T03:46:24;102081.03;;;20.04;41.21
11395;BME280;5753;54.402;10.220;2022-11-14T03:48:50;102084.41;;;20.29;40.83
11395;BME280;5753;54.402;10.220;2022-11-14T03:51:16;102087.88;;;20.48;40.36
11395;BME280;5753;54.402;10.220;2022-11-14T03:53:42;102079.19;;;20.40;40.67
11395;BME280;5753;54.402;10.220;2022-11-14T03:56:09;102072.44;;;19.55;42.22
11395;BME280;5753;54.402;10.220;2022-11-14T03:58:35;102083.75;;;19.17;43.14
11395;BME280;5753;54.402;10.220;2022-11-14T04:01:01;102073.28;;;19.57;42.06
11395;BME280;5753;54.402;10.220;2022-11-14T04:03:28;102064.50;;;19.81;41.63
11395;BME280;5753;54.402;10.220;2022-11-14T04:05:54;102070.63;;;18.69;43.90
11395;BME280;5753;54.402;10.220;2022-11-14T04:08:20;102069.81;;;18.97;43.16
11395;BME280;5753;54.402;10.220;2022-11-14T04:10:47;102063.69;;;19.36;42.79
11395;BME280;5753;54.402;10.220;2022-11-14T04:13:14;102061.97;;;19.02;42.81
11395;BME280;5753;54.402;10.220;2022-11-14T04:15:40;102061.09;;;19.61;41.71
11395;BME280;5753;54.402;10.220;2022-11-14T04:18:06;102053.13;;;20.03;41.14
11395;BME280;5753;54.402;10.220;2022-11-14T04:20:33;102048.84;;;18.73;43.16
11395;BME280;5753;54.402;10.220;2022-11-14T04:22:59;102044.38;;;18.43;44.26
11395;BME280;5753;54.402;10.220;2022-11-14T04:25:25;102047.13;;;18.81;43.57
11395;BME280;5753;54.402;10.220;2022-11-14T04:27:51;102035.81;;;19.57;41.99
11395;BME280;5753;54.402;10.220;2022-11-14T04:30:17;102032.31;;;18.83;43.19
11395;BME280;5753;54.402;10.220;2022-11-14T04:32:46;102037.56;;;19.23;42.28
11395;BME280;5753;54.402;10.220;2022-11-14T04:35:14;102029.63;;;19.82;41.33
11395;BME280;5753;54.402;10.220;2022-11-14T04:37:40;102025.34;;;18.88;42.93
11395;BME280;5753;54.402;10.220;2022-11-14T04:40:07;102024.47;;;18.87;42.63
11395;BME280;5753;54.402;10.220;2022-11-14T04:42:33;102019.22;;;19.65;41.49
11395;BME280;5753;54.402;10.220;2022-11-14T04:44:59;102021.00;;;19.27;41.98
11395;BME280;5753;54.402;10.220;2022-11-14T04:47:25;102013.19;;;19.01;42.49
11395;BME280;5753;54.402;10.220;2022-11-14T04:49:51;102005.31;;;19.16;42.38
11395;BME280;5753;54.402;10.220;2022-11-14T04:52:17;102007.94;;;19.16;42.25
11395;BME280;5753;54.402;10.220;2022-11-14T04:54:43;102007.03;;;19.57;41.23
11395;BME280;5753;54.402;10.220;2022-11-14T04:57:09;102007.94;;;19.16;42.19
11395;BME280;5753;54.402;10.220;2022-11-14T04:59:35;102007.94;;;19.10;42.17
11395;BME280;5753;54.402;10.220;2022-11-14T05:02:01;102008.81;;;18.83;43.03
11395;BME280;5753;54.402;10.220;2022-11-14T05:04:27;102007.06;;;19.22;41.97
11395;BME280;5753;54.402;10.220;2022-11-14T05:06:53;102010.38;;;18.14;44.61
11395;BME280;5753;54.402;10.220;2022-11-14T05:09:20;102005.19;;;18.24;44.12
11395;BME280;5753;54.402;10.220;2022-11-14T05:11:46;102004.44;;;18.82;42.79
11395;BME280;5753;54.402;10.220;2022-11-14T05:14:12;101998.34;;;18.65;43.47
11395;BME280;5753;54.402;10.220;2022-11-14T05:16:38;102003.56;;;18.66;43.20
11395;BME280;5753;54.402;10.220;2022-11-14T05:19:04;102005.13;;;18.03;44.69
11395;BME280;5753;54.402;10.220;2022-11-14T05:21:30;101996.56;;;18.58;43.66
11395;BME280;5753;54.402;10.220;2022-11-14T05:23:56;101996.97;;;17.45;46.10
11395;BME280;5753;54.402;10.220;2022-11-14T05:26:22;102000.09;;;18.81;42.96
11395;BME280;5753;54.402;10.220;2022-11-14T05:28:48;101999.22;;;19.12;41.99
11395;BME280;5753;54.402;10.220;2022-11-14T05:31:15;101996.63;;;19.11;42.13
11395;BME280;5753;54.402;10.220;2022-11-14T05:33:44;101997.38;;;19.75;40.78
11395;BME280;5753;54.402;10.220;2022-11-14T05:36:13;101994.75;;;19.80;40.76
11395;BME280;5753;54.402;10.220;2022-11-14T05:38:40;101984.41;;;18.84;42.18
11395;BME280;5753;54.402;10.220;2022-11-14T05:41:07;101987.91;;;19.19;42.30
11395;BME280;5753;54.402;10.220;2022-11-14T05:43:33;101981.75;;;19.43;41.84
11395;BME280;5753;54.402;10.220;2022-11-14T05:46:05;101985.25;;;19.41;41.83
11395;BME280;5753;54.402;10.220;2022-11-14T05:48:32;101982.66;;;18.57;43.38
11395;BME280;5753;54.402;10.220;2022-11-14T05:50:59;101984.41;;;18.82;43.13
11395;BME280;5753;54.402;10.220;2022-11-14T05:53:26;101981.78;;;19.22;42.00
11395;BME280;5753;54.402;10.220;2022-11-14T05:55:53;101983.50;;;19.60;41.79
11395;BME280;5753;54.402;10.220;2022-11-14T05:58:20;101979.19;;;18.82;43.31
11395;BME280;5753;54.402;10.220;2022-11-14T06:00:47;101978.31;;;18.80;43.19
11395;BME280;5753;54.402;10.220;2022-11-14T06:03:13;101974.81;;;19.24;42.45
11395;BME280;5753;54.402;10.220;2022-11-14T06:05:42;101973.03;;;19.35;42.35
11395;BME280;5753;54.402;10.220;2022-11-14T06:08:08;101969.50;;;19.71;41.61
11395;BME280;5753;54.402;10.220;2022-11-14T06:10:35;101971.28;;;19.62;41.47
11395;BME280;5753;54.402;10.220;2022-11-14T06:13:01;101974.66;;;19.85;41.42
11395;BME280;5753;54.402;10.220;2022-11-14T06:15:27;101979.00;;;19.97;41.06
11395;BME280;5753;54.402;10.220;2022-11-14T06:17:54;101982.66;;;19.16;42.70
11395;BME280;5753;54.402;10.220;2022-11-14T06:20:20;101979.13;;;19.51;41.79
11395;BME280;5753;54.402;10.220;2022-11-14T06:22:46;101978.31;;;19.14;42.35
11395;BME280;5753;54.402;10.220;2022-11-14T06:25:12;101986.94;;;19.69;41.54
11395;BME280;5753;54.402;10.220;2022-11-14T06:27:38;101983.50;;;19.32;42.02
11395;BME280;5753;54.402;10.220;2022-11-14T06:30:05;101986.88;;;19.89;41.58
11395;BME280;5753;54.402;10.220;2022-11-14T06:32:31;101985.06;;;20.02;40.97
11395;BME280;5753;54.402;10.220;2022-11-14T06:34:57;101983.50;;;19.60;41.43
11395;BME280;5753;54.402;10.220;2022-11-14T06:37:23;101981.78;;;19.21;42.49
11395;BME280;5753;54.402;10.220;2022-11-14T06:39:49;101977.28;;;19.88;41.07
11395;BME280;5753;54.402;10.220;2022-11-14T06:42:15;101981.66;;;19.89;40.99
11395;BME280;5753;54.402;10.220;2022-11-14T06:44:42;101972.97;;;19.72;41.56
11395;BME280;5753;54.402;10.220;2022-11-14T06:47:08;101986.09;;;19.64;41.43
11395;BME280;5753;54.402;10.220;2022-11-14T06:49:34;101985.19;;;19.70;41.35
11395;BME280;5753;54.402;10.220;2022-11-14T06:52:00;101994.88;;;18.67;43.52
11395;BME280;5753;54.402;10.220;2022-11-14T06:54:26;101996.59;;;18.90;43.08
11395;BME280;5753;54.402;10.220;2022-11-14T06:56:52;101990.53;;;19.03;42.83
11395;BME280;5753;54.402;10.220;2022-11-14T06:59:18;101996.53;;;19.72;41.35
11395;BME280;5753;54.402;10.220;2022-11-14T07:01:44;101989.59;;;19.60;41.40
11395;BME280;5753;54.402;10.220;2022-11-14T07:04:11;101990.47;;;19.55;41.37
11395;BME280;5753;54.402;10.220;2022-11-14T07:06:37;101994.84;;;18.56;43.31
11395;BME280;5753;54.402;10.220;2022-11-14T07:09:03;101992.25;;;18.67;43.12
11395;BME280;5753;54.402;10.220;2022-11-14T07:11:30;101993.91;;;18.38;43.63
11395;BME280;5753;54.402;10.220;2022-11-14T07:14:01;101983.56;;;18.97;42.60
11395;BME280;5753;54.402;10.220;2022-11-14T07:16:30;101988.69;;;18.35;43.68
11395;BME280;5753;54.402;10.220;2022-11-14T07:18:57;101984.38;;;19.39;41.87
11395;BME280;5753;54.402;10.220;2022-11-14T07:21:24;101993.09;;;19.47;41.54
11395;BME280;5753;54.402;10.220;2022-11-14T07:23:50;101987.78;;;19.79;41.08
11395;BME280;5753;54.402;10.220;2022-11-14T07:26:16;101988.53;;;20.08;40.45
11395;BME280;5753;54.402;10.220;2022-11-14T07:28:44;101981.75;;;19.56;41.42
11395;BME280;5753;54.402;10.220;2022-11-14T07:31:15;101978.94;;;20.07;40.69
11395;BME280;5753;54.402;10.220;2022-11-14T07:33:42;101986.09;;;19.61;41.37
11395;BME280;5753;54.402;10.220;2022-11-14T07:36:10;101986.19;;;19.05;42.79
11395;BME280;5753;54.402;10.220;2022-11-14T07:38:37;101977.38;;;19.64;41.54
11395;BME280;5753;54.402;10.220;2022-11-14T07:41:08;101987.00;;;19.53;41.58
11395;BME280;5753;54.402;10.220;2022-11-14T07:43:35;101985.25;;;19.39;41.73
11395;BME280;5753;54.402;10.220;2022-11-14T07:46:15;101980.00;;;19.58;41.61
11395;BME280;5753;54.402;10.220;2022-11-14T07:48:42;101981.78;;;19.27;42.22
11395;BME280;5753;54.402;10.220;2022-11-14T07:51:13;101973.03;;;19.46;41.77
11395;BME280;5753;54.402;10.220;2022-11-14T07:53:40;101974.84;;;19.01;42.92
11395;BME280;5753;54.402;10.220;2022-11-14T07:56:08;101965.19;;;19.46;41.94
11395;BME280;5753;54.402;10.220;2022-11-14T07:58:39;101969.63;;;18.72;42.52
11395;BME280;5753;54.402;10.220;2022-11-14T08:01:06;101972.22;;;18.68;42.58
11395;BME280;5753;54.402;10.220;2022-11-14T08:03:33;101967.00;;;19.03;42.51
11395;BME280;5753;54.402;10.220;2022-11-14T08:08:26;101964.31;;;19.52;40.88
11395;BME280;5753;54.402;10.220;2022-11-14T08:10:56;101959.97;;;19.49;41.18
11395;BME280;5753;54.402;10.220;2022-11-14T08:13:23;101965.06;;;19.84;40.48
11395;BME280;5753;54.402;10.220;2022-11-14T08:15:49;101955.59;;;18.18;43.45
11395;BME280;5753;54.402;10.220;2022-11-14T08:18:15;101953.09;;;18.72;42.67
11395;BME280;5753;54.402;10.220;2022-11-14T08:20:42;101957.41;;;19.20;41.77
11395;BME280;5753;54.402;10.220;2022-11-14T08:23:09;101956.56;;;18.84;42.64
11395;BME280;5753;54.402;10.220;2022-11-14T08:25:36;101955.69;;;18.88;42.87
11395;BME280;5753;54.402;10.220;2022-11-14T08:28:02;101953.06;;;18.76;42.86
11395;BME280;5753;54.402;10.220;2022-11-14T08:30:28;101955.66;;;19.19;41.74
11395;BME280;5753;54.402;10.220;2022-11-14T08:32:54;101953.88;;;19.45;41.25
11395;BME280;5753;54.402;10.220;2022-11-14T08:35:21;101949.59;;;18.68;42.55
11395;BME280;5753;54.402;10.220;2022-11-14T08:37:48;101967.00;;;18.65;42.83
11395;BME280;5753;54.402;10.220;2022-11-14T08:40:14;101961.75;;;18.46;43.09
11395;BME280;5753;54.402;10.220;2022-11-14T08:42:40;101952.19;;;18.59;43.08
11395;BME280;5753;54.402;10.220;2022-11-14T08:45:06;101952.97;;;19.63;40.62
11395;BME280;5753;54.402;10.220;2022-11-14T08:47:32;101951.13;;;19.90;40.51
11395;BME280;5753;54.402;10.220;2022-11-14T08:49:59;101951.31;;;18.89;42.33
11395;BME280;5753;54.402;10.220;2022-11-14T08:52:25;101940.88;;;19.07;41.95
11395;BME280;5753;54.402;10.220;2022-11-14T08:54:51;101933.00;;;19.19;41.67
11395;BME280;5753;54.402;10.220;2022-11-14T08:57:17;101933.00;;;19.21;41.87
11395;BME280;5753;54.402;10.220;2022-11-14T08:59:43;101922.59;;;18.81;42.47
11395;BME280;5753;54.402;10.220;2022-11-14T09:02:13;101915.34;;;19.90;40.33
11395;BME280;5753;54.402;10.220;2022-11-14T09:04:39;101921.66;;;18.21;43.39
11395;BME280;5753;54.402;10.220;2022-11-14T09:07:06;101913.88;;;18.87;42.57
11395;BME280;5753;54.402;10.220;2022-11-14T09:09:32;101910.22;;;19.69;40.70
11395;BME280;5753;54.402;10.220;2022-11-14T09:11:58;101901.50;;;19.67;40.86
11395;BME280;5753;54.402;10.220;2022-11-14T09:14:24;101902.56;;;19.03;42.47
11395;BME280;5753;54.402;10.220;2022-11-14T09:16:50;101901.84;;;20.56;39.83
11395;BME280;5753;54.402;10.220;2022-11-14T09:19:16;101907.69;;;19.43;41.40
11395;BME280;5753;54.402;10.220;2022-11-14T09:21:42;101906.88;;;19.18;41.59
11395;BME280;5753;54.402;10.220;2022-11-14T09:24:09;101902.47;;;19.41;41.51
11395;BME280;5753;54.402;10.220;2022-11-14T09:26:35;101905.16;;;18.25;43.93
11395;BME280;5753;54.402;10.220;2022-11-14T09:29:01;101902.38;;;19.67;41.00
11395;BME280;5753;54.402;10.220;2022-11-14T09:31:27;101898.88;;;19.65;40.98
11395;BME280;5753;54.402;10.220;2022-11-14T09:33:54;101901.38;;;19.91;40.34
11395;BME280;5753;54.402;10.220;2022-11-14T09:36:20;101901.97;;;20.31;39.78
11395;BME280;5753;54.402;10.220;2022-11-14T09:38:46;101903.91;;;20.05;40.42
11395;BME280;5753;54.402;10.220;2022-11-14T09:41:25;101894.53;;;20.90;39.20
11395;BME280;5753;54.402;10.220;2022-11-14T09:46:58;101888.03;;;20.28;39.72
11395;BME280;5753;54.402;10.220;2022-11-14T09:49:37;101882.41;;;20.81;38.90
11395;BME280;5753;54.402;10.220;2022-11-14T09:52:37;101883.97;;;19.87;40.46
11395;BME280;5753;54.402;10.220;2022-11-14T09:55:26;101888.91;;;20.27;40.02
11395;BME280;5753;54.402;10.220;2022-11-14T09:57:54;101876.41;;;19.09;41.94
11395;BME280;5753;54.402;10.220;2022-11-14T10:00:26;101875.56;;;18.30;43.53
11395;BME280;5753;54.402;10.220;2022-11-14T10:16:35;101886.03;;;18.48;42.12
11395;BME280;5753;54.402;10.220;2022-11-14T10:22:20;101878.47;;;16.85;44.99
11395;BME280;5753;54.402;10.220;2022-11-14T10:25:13;101875.56;;;18.42;42.05
11395;BME280;5753;54.402;10.220;2022-11-14T10:28:15;101867.72;;;18.42;41.82
11395;BME280;5753;54.402;10.220;2022-11-14T10:39:42;101856.94;;;19.80;40.05
11395;BME280;5753;54.402;10.220;2022-11-14T10:42:13;101864.84;;;19.74;40.23
11395;BME280;5753;54.402;10.220;2022-11-14T10:44:55;101858.13;;;19.05;41.60
11395;BME280;5753;54.402;10.220;2022-11-14T10:47:25;101854.66;;;18.91;40.85
11395;BME280;5753;54.402;10.220;2022-11-14T10:49:57;101859.66;;;17.41;43.89
11395;BME280;5753;54.402;10.220;2022-11-14T10:52:38;101864.19;;;17.91;42.63
11395;BME280;5753;54.402;10.220;2022-11-14T10:55:13;101862.44;;;19.15;40.41
11395;BME280;5753;54.402;10.220;2022-11-14T10:57:39;101858.00;;;19.43;40.39
11395;BME280;5753;54.402;10.220;2022-11-14T11:00:20;101862.47;;;19.12;40.61
11395;BME280;5753;54.402;10.220;2022-11-14T11:02:49;101868.63;;;18.80;40.97
11395;BME280;5753;54.402;10.220;2022-11-14T11:05:17;101856.94;;;19.80;39.42
11395;BME280;5753;54.402;10.220;2022-11-14T11:07:45;101855.81;;;20.20;38.95
11395;BME280;5753;54.402;10.220;2022-11-14T11:10:31;101849.41;;;19.09;40.46
11395;BME280;5753;54.402;10.220;2022-11-14T11:15:58;101848.69;;;20.38;38.39
11395;BME280;5753;54.402;10.220;2022-11-14T11:21:10;101837.97;;;19.40;39.76
11395;BME280;5753;54.402;10.220;2022-11-14T11:26:27;101826.78;;;19.05;40.39
11395;BME280;5753;54.402;10.220;2022-11-14T11:31:52;101823.34;;;18.80;41.23
11395;BME280;5753;54.402;10.220;2022-11-14T11:34:26;101811.97;;;19.01;40.97
11395;BME280;5753;54.402;10.220;2022-11-14T11:39:30;101803.09;;;19.44;39.67
11395;BME280;5753;54.402;10.220;2022-11-14T11:42:00;101808.22;;;19.64;39.71
11395;BME280;5753;54.402;10.220;2022-11-14T11:44:35;101790.41;;;20.13;38.71
11395;BME280;5753;54.402;10.220;2022-11-14T11:47:07;101789.56;;;20.11;38.54
11395;BME280;5753;54.402;10.220;2022-11-14T11:49:49;101789.69;;;19.96;39.21
11395;BME280;5753;54.402;10.220;2022-11-14T11:55:22;101774.88;;;20.89;37.37
11395;BME280;5753;54.402;10.220;2022-11-14T12:00:32;101783.66;;;20.85;37.96
11395;BME280;5753;54.402;10.220;2022-11-14T12:02:59;101779.03;;;20.18;38.96
11395;BME280;5753;54.402;10.220;2022-11-14T12:05:39;101778.19;;;21.03;37.81
11395;BME280;5753;54.402;10.220;2022-11-14T12:10:44;101769.88;;;20.64;38.30
11395;BME280;5753;54.402;10.220;2022-11-14T12:21:09;101757.34;;;20.94;37.83
11395;BME280;5753;54.402;10.220;2022-11-14T12:26:19;101761.47;;;21.12;37.47
11395;BME280;5753;54.402;10.220;2022-11-14T12:31:34;101727.72;;;22.07;36.32
11395;BME280;5753;54.402;10.220;2022-11-14T12:34:29;101731.06;;;22.15;36.25
11395;BME280;5753;54.402;10.220;2022-11-14T12:36:56;101723.56;;;21.39;37.11
11395;BME280;5753;54.402;10.220;2022-11-14T12:39:30;101736.16;;;21.71;36.71
11395;BME280;5753;54.402;10.220;2022-11-14T12:42:11;101723.75;;;21.20;37.69
11395;BME280;5753;54.402;10.220;2022-11-14T12:44:42;101743.78;;;21.87;36.30
11395;BME280;5753;54.402;10.220;2022-11-14T12:52:42;101726.47;;;21.77;37.05
11395;BME280;5753;54.402;10.220;2022-11-14T13:00:22;101697.13;;;22.51;35.97
11395;BME280;5753;54.402;10.220;2022-11-14T13:08:51;101669.50;;;23.52;33.70
11395;BME280;5753;54.402;10.220;2022-11-14T13:11:41;101670.66;;;23.77;33.02
11395;BME280;5753;54.402;10.220;2022-11-14T13:14:27;101675.41;;;23.62;33.12
11395;BME280;5753;54.402;10.220;2022-11-14T13:20:01;101688.72;;;23.91;33.40
11395;BME280;5753;54.402;10.220;2022-11-14T13:22:51;101679.50;;;24.41;32.38
11395;BME280;5753;54.402;10.220;2022-11-14T13:25:20;101671.13;;;24.57;31.83
11395;BME280;5753;54.402;10.220;2022-11-14T13:27:46;101668.25;;;24.66;31.68
11395;BME280;5753;54.402;10.220;2022-11-14T13:30:13;101661.28;;;23.67;32.70
11395;BME280;5753;54.402;10.220;2022-11-14T13:35:34;101671.38;;;25.36;30.89
11395;BME280;5753;54.402;10.220;2022-11-14T13:38:43;101670.69;;;25.84;30.40
11395;BME280;5753;54.402;10.220;2022-11-14T13:47:23;101654.78;;;26.60;29.19
11395;BME280;5753;54.402;10.220;2022-11-14T13:50:18;101646.50;;;25.43;30.73
11395;BME280;5753;54.402;10.220;2022-11-14T13:52:50;101645.91;;;25.35;30.93
11395;BME280;5753;54.402;10.220;2022-11-14T13:55:21;101648.59;;;24.46;32.49
11395;BME280;5753;54.402;10.220;2022-11-14T13:58:19;101655.25;;;24.60;32.26
11395;BME280;5753;54.402;10.220;2022-11-14T14:00:56;101642.00;;;25.20;31.94
11395;BME280;5753;54.402;10.220;2022-11-14T14:03:35;101637.78;;;24.25;33.08
11395;BME280;5753;54.402;10.220;2022-11-14T14:06:26;101636.41;;;24.10;33.34
11395;BME280;5753;54.402;10.220;2022-11-14T14:17:28;101641.50;;;24.48;32.78
11395;BME280;5753;54.402;10.220;2022-11-14T14:22:41;101649.41;;;23.48;34.18
11395;BME280;5753;54.402;10.220;2022-11-14T14:30:32;101638.69;;;23.21;34.20
11395;BME280;5753;54.402;10.220;2022-11-14T14:35:35;101640.06;;;22.57;35.56
11395;BME280;5753;54.402;10.220;2022-11-14T14:38:02;101635.13;;;22.42;35.49
11395;BME280;5753;54.402;10.220;2022-11-14T14:40:37;101635.00;;;20.96;38.23
11395;BME280;5753;54.402;10.220;2022-11-14T14:43:05;101633.44;;;21.93;36.70
11395;BME280;5753;54.402;10.220;2022-11-14T14:45:44;101620.78;;;21.11;37.74
11395;BME280;5753;54.402;10.220;2022-11-14T14:48:20;101628.00;;;22.03;36.29
11395;BME280;5753;54.402;10.220;2022-11-14T14:50:50;101619.25;;;22.04;36.34
11395;BME280;5753;54.402;10.220;2022-11-14T14:56:19;101623.06;;;21.86;36.45
11395;BME280;5753;54.402;10.220;2022-11-14T14:58:45;101617.03;;;21.28;37.46